Time;durP1;ratioP1;P1;durP2;ratioP2;P2;SDS_P1;SDS_P2;PMS_P1;PMS_P2;Temp;Humidity;BMP_temperature;BMP_pressure;BME280_temperature;BME280_humidity;BME280_pressure;Samples;Min_cycle;Max_cycle;Signal;HPM_P1;HPM_P2
2024/01/16 00:01:47;;;;;;;11.15;8.23;;;15.80;27.70;;;;;;5052258;28;20223;-64
2024/01/16 00:04:14;;;;;;;13.65;8.68;;;15.80;27.70;;;;;;5052441;28;20198;-64
2024/01/16 00:06:43;;;;;;;11.77;8.75;;;15.80;27.70;;;;;;5052098;28;20242;-62
2024/01/16 00:09:10;;;;;;;13.00;8.13;;;15.80;27.70;;;;;;5051733;28;20277;-64
2024/01/16 00:11:41;;;;;;;11.40;8.00;;;15.80;27.70;;;;;;5052553;28;20216;-64
2024/01/16 00:14:08;;;;;;;11.35;8.40;;;15.80;27.70;;;;;;5051899;28;20559;-64
2024/01/16 00:16:43;;;;;;;11.07;8.32;;;15.80;27.80;;;;;;5052047;28;20223;-64
2024/01/16 00:19:11;;;;;;;14.20;9.18;;;15.80;27.70;;;;;;5052119;28;20187;-64
2024/01/16 00:21:40;;;;;;;12.20;8.68;;;15.70;27.70;;;;;;5052357;28;20211;-64
2024/01/16 00:24:08;;;;;;;12.57;8.73;;;15.80;27.80;;;;;;5051899;28;20196;-64
2024/01/16 00:26:36;;;;;;;11.48;8.35;;;15.70;27.70;;;;;;5052269;28;20223;-64
2024/01/16 00:29:03;;;;;;;11.40;8.23;;;15.70;27.70;;;;;;5052138;28;20198;-64
2024/01/16 00:31:30;;;;;;;12.35;8.23;;;15.70;27.70;;;;;;5051532;28;20216;-63
2024/01/16 00:33:57;;;;;;;12.20;8.50;;;15.70;27.70;;;;;;5052172;28;20541;-64
2024/01/16 00:36:24;;;;;;;12.48;8.77;;;15.70;27.70;;;;;;5051822;28;20739;-64
2024/01/16 00:38:51;;;;;;;12.18;8.27;;;15.70;27.80;;;;;;5051796;28;20198;-64
2024/01/16 00:41:19;;;;;;;13.13;8.40;;;15.70;27.80;;;;;;5052084;28;20235;-64
2024/01/16 00:43:47;;;;;;;13.30;9.23;;;15.70;27.80;;;;;;5052020;28;20196;-64
2024/01/16 00:46:14;;;;;;;13.20;9.43;;;15.70;27.80;;;;;;5051590;28;20237;-65
2024/01/16 00:48:41;;;;;;;12.23;8.57;;;15.70;27.80;;;;;;5051956;28;20190;-64
2024/01/16 00:51:08;;;;;;;14.43;8.35;;;15.70;27.80;;;;;;5052013;28;20222;-64
2024/01/16 00:53:40;;;;;;;13.27;9.30;;;15.70;27.80;;;;;;5051844;28;20196;-64
2024/01/16 00:56:07;;;;;;;13.18;8.65;;;15.70;27.80;;;;;;5051937;28;20215;-64
2024/01/16 00:58:35;;;;;;;11.65;8.55;;;15.60;27.80;;;;;;5051622;28;20198;-64
2024/01/16 01:01:02;;;;;;;12.77;9.15;;;15.70;27.80;;;;;;5051232;28;20744;-64
2024/01/16 01:03:29;;;;;;;12.50;8.77;;;15.70;27.80;;;;;;5051809;28;20188;-64
2024/01/16 01:05:56;;;;;;;11.10;8.65;;;15.70;27.80;;;;;;5052876;28;20218;-64
2024/01/16 01:08:23;;;;;;;13.77;9.13;;;15.60;27.70;;;;;;5054875;28;20238;-64
2024/01/16 01:10:50;;;;;;;11.65;8.65;;;15.60;27.70;;;;;;5055416;28;20272;-63
2024/01/16 01:13:17;;;;;;;12.48;9.18;;;15.60;27.80;;;;;;5055509;28;20276;-64
2024/01/16 01:15:46;;;;;;;14.88;9.45;;;15.60;27.80;;;;;;5054778;28;20702;-64
2024/01/16 01:18:13;;;;;;;13.10;9.13;;;15.60;27.80;;;;;;5055049;28;20559;-63
2024/01/16 01:20:39;;;;;;;13.70;9.32;;;15.60;27.80;;;;;;5055269;28;20250;-62
2024/01/16 01:23:06;;;;;;;13.25;9.43;;;15.60;27.80;;;;;;5054725;28;20192;-64
2024/01/16 01:25:33;;;;;;;14.35;9.52;;;15.60;27.80;;;;;;5055210;28;20321;-63
2024/01/16 01:28:00;;;;;;;13.27;9.10;;;15.60;27.80;;;;;;5055360;28;20191;-64
2024/01/16 01:30:27;;;;;;;13.30;8.50;;;15.60;27.80;;;;;;5054732;28;20231;-64
2024/01/16 01:32:55;;;;;;;11.27;8.75;;;15.60;28.30;;;;;;5054848;28;20564;-64
2024/01/16 01:35:22;;;;;;;11.95;9.15;;;15.60;27.80;;;;;;5054991;28;20198;-64
2024/01/16 01:37:49;;;;;;;12.63;9.18;;;15.60;27.80;;;;;;5054698;28;20196;-64
2024/01/16 01:40:16;;;;;;;13.85;9.82;;;15.60;27.80;;;;;;5054914;28;20303;-64
2024/01/16 01:42:43;;;;;;;13.55;9.30;;;15.60;27.80;;;;;;5054603;28;20737;-64
2024/01/16 01:45:10;;;;;;;12.73;8.95;;;15.60;27.80;;;;;;5054582;28;20286;-63
2024/01/16 01:47:38;;;;;;;15.55;9.88;;;15.50;27.70;;;;;;5054833;28;20282;-64
2024/01/16 01:50:08;;;;;;;14.05;9.38;;;15.50;27.80;;;;;;5054854;28;20614;-64
2024/01/16 01:52:35;;;;;;;15.23;9.45;;;15.50;27.80;;;;;;5054464;28;20196;-64
2024/01/16 01:55:04;;;;;;;16.10;9.23;;;15.50;27.80;;;;;;5054848;28;20283;-64
2024/01/16 01:57:34;;;;;;;12.70;9.23;;;15.50;27.80;;;;;;5054626;28;20685;-65
2024/01/16 02:00:03;;;;;;;14.35;9.57;;;15.50;27.80;;;;;;5054215;28;20307;-63
2024/01/16 02:02:30;;;;;;;13.75;9.35;;;15.50;27.80;;;;;;5054891;28;20216;-64
2024/01/16 02:04:57;;;;;;;13.88;9.07;;;15.50;27.80;;;;;;5054566;28;20278;-64
2024/01/16 02:07:26;;;;;;;15.07;9.85;;;15.50;27.80;;;;;;5053623;28;20231;-64
2024/01/16 02:09:53;;;;;;;14.98;10.05;;;15.50;27.80;;;;;;5054080;28;20647;-64
2024/01/16 02:12:20;;;;;;;14.23;9.82;;;15.50;27.80;;;;;;5054637;28;20286;-64
2024/01/16 02:14:47;;;;;;;12.80;9.32;;;15.50;27.80;;;;;;5053781;28;20223;-64
2024/01/16 02:17:14;;;;;;;13.23;9.73;;;15.50;27.80;;;;;;5053883;28;20755;-64
2024/01/16 02:19:41;;;;;;;15.35;10.25;;;15.50;27.80;;;;;;5054212;28;20289;-64
2024/01/16 02:22:12;;;;;;;17.15;10.48;;;15.40;27.80;;;;;;5054047;28;20302;-64
2024/01/16 02:24:40;;;;;;;16.13;9.88;;;15.40;27.80;;;;;;5054195;28;20188;-64
2024/01/16 02:27:08;;;;;;;16.40;10.75;;;15.50;27.90;;;;;;5054280;28;20303;-64
2024/01/16 02:29:37;;;;;;;15.23;10.40;;;15.50;27.90;;;;;;5053763;28;20622;-64
2024/01/16 02:32:04;;;;;;;13.23;9.68;;;15.40;27.80;;;;;;5054255;28;20216;-65
2024/01/16 02:34:31;;;;;;;15.00;10.25;;;15.40;27.80;;;;;;5054084;28;20286;-65
2024/01/16 02:36:58;;;;;;;15.98;10.77;;;15.40;27.90;;;;;;5053702;28;20220;-64
2024/01/16 02:39:25;;;;;;;14.35;10.25;;;15.50;27.90;;;;;;5053910;28;20238;-64
2024/01/16 02:41:53;;;;;;;14.45;10.32;;;15.40;27.90;;;;;;5053646;28;20237;-64
2024/01/16 02:44:20;;;;;;;16.17;10.15;;;15.40;27.90;;;;;;5053480;28;20192;-64
2024/01/16 02:46:47;;;;;;;13.90;10.02;;;15.40;27.90;;;;;;5053807;28;20251;-63
2024/01/16 02:49:14;;;;;;;13.93;9.93;;;15.40;27.90;;;;;;5053719;28;20192;-64
2024/01/16 02:51:41;;;;;;;16.42;10.15;;;15.40;28.40;;;;;;5053391;28;20226;-63
2024/01/16 02:54:09;;;;;;;13.65;9.55;;;15.40;27.90;;;;;;5053649;28;20191;-64
2024/01/16 02:56:36;;;;;;;14.38;9.95;;;15.40;27.90;;;;;;5053618;28;20262;-63
2024/01/16 02:59:04;;;;;;;14.23;9.73;;;15.40;27.90;;;;;;5053261;28;20195;-64
2024/01/16 03:01:31;;;;;;;14.07;9.05;;;15.40;27.90;;;;;;5053511;28;20239;-63
2024/01/16 03:03:57;;;;;;;12.50;9.25;;;15.40;27.90;;;;;;5053540;28;20622;-64
2024/01/16 03:06:25;;;;;;;13.93;9.57;;;15.40;27.90;;;;;;5052907;28;20298;-64
2024/01/16 03:08:52;;;;;;;15.93;10.57;;;15.40;27.90;;;;;;5052987;28;20668;-64
2024/01/16 03:11:19;;;;;;;14.85;9.18;;;15.40;27.90;;;;;;5053486;28;20221;-64
2024/01/16 03:13:46;;;;;;;14.35;10.00;;;15.40;27.90;;;;;;5053157;28;20187;-62
2024/01/16 03:16:14;;;;;;;12.27;9.23;;;15.30;27.80;;;;;;5052987;28;20216;-64
2024/01/16 03:18:42;;;;;;;14.48;9.45;;;15.30;27.80;;;;;;5053069;28;20282;-63
2024/01/16 03:21:09;;;;;;;13.32;9.50;;;15.40;27.90;;;;;;5053035;28;20235;-64
2024/01/16 03:23:36;;;;;;;14.05;9.02;;;15.40;27.90;;;;;;5052854;28;20292;-64
2024/01/16 03:26:03;;;;;;;14.45;9.55;;;15.30;27.90;;;;;;5052709;28;20591;-64
2024/01/16 03:28:30;;;;;;;13.63;9.25;;;15.30;27.90;;;;;;5052347;28;20249;-64
2024/01/16 03:30:57;;;;;;;14.25;9.52;;;15.40;28.50;;;;;;5052599;28;20302;-64
2024/01/16 03:33:25;;;;;;;15.52;9.50;;;15.30;27.90;;;;;;5052855;28;20271;-63
2024/01/16 03:35:52;;;;;;;14.23;9.80;;;15.30;27.90;;;;;;5052806;28;20219;-64
2024/01/16 03:38:19;;;;;;;13.38;8.82;;;15.30;27.90;;;;;;5052203;28;20275;-64
2024/01/16 03:40:46;;;;;;;14.13;9.82;;;15.30;27.90;;;;;;5052657;28;20231;-64
2024/01/16 03:43:13;;;;;;;13.73;9.18;;;15.30;27.90;;;;;;5052703;28;20595;-64
2024/01/16 03:45:40;;;;;;;13.43;9.07;;;15.30;27.90;;;;;;5052322;28;20267;-64
2024/01/16 03:48:07;;;;;;;13.65;8.73;;;15.30;27.90;;;;;;5052659;28;20270;-64
2024/01/16 03:50:36;;;;;;;12.95;9.18;;;15.30;27.90;;;;;;5052638;28;20287;-64
2024/01/16 03:53:04;;;;;;;14.73;8.75;;;15.30;27.90;;;;;;5052279;28;20241;-64
2024/01/16 03:55:31;;;;;;;13.02;9.07;;;15.30;27.90;;;;;;5052450;28;20187;-64
2024/01/16 03:57:58;;;;;;;13.68;8.80;;;15.30;27.90;;;;;;5052531;28;20210;-64
2024/01/16 04:00:25;;;;;;;12.63;8.32;;;15.30;27.90;;;;;;5051933;28;20267;-64
2024/01/16 04:02:52;;;;;;;11.40;8.48;;;15.30;27.90;;;;;;5052390;28;20192;-64
2024/01/16 04:05:19;;;;;;;13.23;8.57;;;15.30;27.90;;;;;;5052203;28;20198;-64
2024/01/16 04:07:47;;;;;;;12.77;8.45;;;15.30;27.90;;;;;;5051943;28;20325;-64
2024/01/16 04:10:14;;;;;;;14.20;8.63;;;15.30;27.90;;;;;;5052562;28;20202;-63
2024/01/16 04:12:41;;;;;;;13.82;8.32;;;15.30;27.90;;;;;;5052203;28;20230;-64
2024/01/16 04:15:09;;;;;;;12.98;8.23;;;15.30;27.90;;;;;;5052260;28;20204;-64
2024/01/16 04:17:36;;;;;;;14.35;8.45;;;15.30;27.90;;;;;;5052167;28;20658;-64
2024/01/16 04:20:03;;;;;;;13.93;8.98;;;15.20;27.90;;;;;;5052206;28;20199;-64
2024/01/16 04:22:30;;;;;;;11.07;8.38;;;15.20;27.90;;;;;;5051987;28;20238;-64
2024/01/16 04:24:58;;;;;;;11.95;8.15;;;15.20;27.90;;;;;;5052266;28;20234;-64
2024/01/16 04:27:26;;;;;;;11.13;7.85;;;15.30;27.90;;;;;;5052353;28;20215;-62
2024/01/16 04:29:53;;;;;;;11.52;7.85;;;15.20;27.90;;;;;;5051508;28;20187;-64
2024/01/16 04:32:20;;;;;;;11.70;8.75;;;15.20;27.90;;;;;;5052359;28;20223;-64
2024/01/16 04:34:47;;;;;;;11.10;7.85;;;15.20;27.90;;;;;;5052163;28;20187;-64
2024/01/16 04:37:13;;;;;;;12.55;8.38;;;15.20;27.90;;;;;;5051814;28;20215;-65
2024/01/16 04:39:40;;;;;;;12.63;8.77;;;15.20;27.90;;;;;;5052782;28;20190;-64
2024/01/16 04:42:09;;;;;;;10.25;7.47;;;15.20;27.90;;;;;;5056179;28;20234;-64
2024/01/16 04:44:36;;;;;;;10.02;7.53;;;15.20;27.90;;;;;;5055766;28;20192;-64
2024/01/16 04:47:03;;;;;;;10.27;7.93;;;15.20;27.90;;;;;;5056096;28;20215;-64
2024/01/16 04:49:30;;;;;;;11.10;7.72;;;15.20;27.90;;;;;;5056019;28;20568;-64
2024/01/16 04:51:57;;;;;;;11.00;7.50;;;15.20;27.90;;;;;;5053788;28;20308;-64
2024/01/16 04:54:24;;;;;;;12.13;7.47;;;15.20;27.90;;;;;;5055806;28;20248;-64
2024/01/16 04:56:50;;;;;;;9.88;7.47;;;15.20;27.90;;;;;;5055790;28;20647;-64
2024/01/16 04:59:19;;;;;;;10.00;7.43;;;15.20;27.90;;;;;;5055150;28;20686;-64
2024/01/16 05:01:46;;;;;;;13.05;7.97;;;15.20;27.90;;;;;;5055703;28;20317;-64
2024/01/16 05:04:13;;;;;;;11.20;7.35;;;15.20;27.90;;;;;;5055741;28;20275;-64
2024/01/16 05:06:40;;;;;;;13.15;7.75;;;15.20;27.90;;;;;;5055007;28;20219;-64
2024/01/16 05:09:09;;;;;;;11.00;7.40;;;15.20;27.90;;;;;;5055403;28;20669;-64
2024/01/16 05:11:35;;;;;;;10.07;7.15;;;15.20;27.90;;;;;;5055770;28;20311;-64
2024/01/16 05:14:02;;;;;;;9.43;7.18;;;15.10;27.90;;;;;;5055229;28;20192;-63
2024/01/16 05:16:31;;;;;;;10.63;7.38;;;15.20;28.00;;;;;;5055503;28;20315;-64
2024/01/16 05:18:58;;;;;;;10.40;7.95;;;15.20;27.90;;;;;;5055455;28;20194;-64
2024/01/16 05:21:25;;;;;;;10.43;7.20;;;15.20;28.00;;;;;;5054724;28;20227;-64
2024/01/16 05:23:52;;;;;;;10.30;7.53;;;15.10;27.90;;;;;;5055360;28;20195;-60
2024/01/16 05:26:19;;;;;;;10.05;7.35;;;15.10;27.90;;;;;;5054935;28;20561;-64
2024/01/16 05:28:45;;;;;;;10.80;7.18;;;15.10;27.90;;;;;;5054604;28;20544;-64
2024/01/16 05:31:12;;;;;;;10.20;6.90;;;15.10;27.90;;;;;;5054897;28;20693;-64
2024/01/16 05:33:41;;;;;;;9.13;7.18;;;15.10;27.90;;;;;;5055139;28;20187;-64
2024/01/16 05:36:08;;;;;;;10.60;6.22;;;15.10;27.90;;;;;;5054784;28;20212;-64
2024/01/16 05:38:37;;;;;;;10.05;6.78;;;15.10;27.90;;;;;;5055121;28;20284;-64
2024/01/16 05:41:04;;;;;;;8.30;6.60;;;15.10;27.90;;;;;;5054877;28;20224;-64
2024/01/16 05:43:31;;;;;;;9.48;6.93;;;15.10;27.90;;;;;;5054672;28;20191;-64
2024/01/16 05:45:58;;;;;;;9.75;6.82;;;15.10;27.90;;;;;;5054848;28;20307;-64
2024/01/16 05:48:25;;;;;;;10.02;6.90;;;15.10;27.90;;;;;;5054935;28;20260;-64
2024/01/16 05:50:53;;;;;;;10.77;6.80;;;15.10;27.90;;;;;;5054267;28;20307;-64
2024/01/16 05:53:20;;;;;;;10.13;7.22;;;15.10;27.90;;;;;;5054387;28;20198;-64
2024/01/16 05:55:47;;;;;;;9.70;7.10;;;15.10;27.90;;;;;;5054714;28;20202;-64
2024/01/16 05:58:14;;;;;;;9.43;6.45;;;15.00;27.90;;;;;;5054364;28;20210;-64
2024/01/16 06:00:41;;;;;;;9.82;6.60;;;15.10;27.90;;;;;;5054644;28;20190;-64
2024/01/16 06:03:08;;;;;;;10.65;6.70;;;15.10;28.00;;;;;;5054531;28;20215;-64
2024/01/16 06:05:35;;;;;;;9.75;6.50;;;15.10;27.90;;;;;;5053791;28;20191;-64
2024/01/16 06:08:03;;;;;;;10.38;6.70;;;15.00;27.90;;;;;;5054365;28;20334;-64
2024/01/16 06:10:30;;;;;;;9.43;6.85;;;15.10;27.90;;;;;;5054765;28;20191;-64
2024/01/16 06:12:57;;;;;;;8.50;6.13;;;15.10;27.90;;;;;;5054247;28;20215;-64
2024/01/16 06:15:24;;;;;;;10.13;6.50;;;15.10;28.50;;;;;;5054352;28;20587;-64
2024/01/16 06:17:51;;;;;;;8.30;6.00;;;15.00;27.90;;;;;;5054637;28;20211;-65
2024/01/16 06:20:18;;;;;;;8.18;5.65;;;15.00;27.90;;;;;;5053842;28;20184;-64
2024/01/16 06:22:45;;;;;;;8.98;6.05;;;15.10;28.00;;;;;;5054358;28;20423;-64
2024/01/16 06:25:13;;;;;;;10.82;7.07;;;15.00;27.90;;;;;;5054137;28;20316;-64
2024/01/16 06:27:41;;;;;;;8.43;6.20;;;15.00;27.90;;;;;;5053638;28;20298;-64
2024/01/16 06:30:10;;;;;;;9.55;5.97;;;15.10;28.00;;;;;;5054139;28;20211;-65
2024/01/16 06:32:36;;;;;;;8.35;5.70;;;15.00;27.90;;;;;;5053926;28;20778;-64
2024/01/16 06:35:04;;;;;;;9.60;6.30;;;15.00;27.90;;;;;;5053581;28;20575;-64
2024/01/16 06:37:31;;;;;;;9.63;6.10;;;15.00;27.90;;;;;;5054219;28;20302;-64
2024/01/16 06:39:58;;;;;;;12.05;6.68;;;15.00;27.90;;;;;;5053588;28;20650;-64
2024/01/16 06:42:26;;;;;;;8.52;6.72;;;15.00;27.90;;;;;;5053552;28;20231;-64
2024/01/16 06:44:53;;;;;;;8.73;5.70;;;15.00;27.90;;;;;;5053884;28;20441;-64
2024/01/16 06:47:20;;;;;;;9.43;6.28;;;15.00;27.90;;;;;;5053867;28;20294;-65
2024/01/16 06:49:47;;;;;;;7.90;5.80;;;15.00;27.90;;;;;;5053381;28;20267;-64
2024/01/16 06:52:14;;;;;;;9.15;6.03;;;15.00;27.90;;;;;;5053675;28;20306;-64
2024/01/16 06:54:41;;;;;;;9.35;5.75;;;15.00;27.90;;;;;;5053698;28;20187;-64
2024/01/16 06:57:08;;;;;;;9.73;5.75;;;15.00;28.00;;;;;;5053307;28;20215;-64
2024/01/16 06:59:36;;;;;;;9.93;6.47;;;15.00;28.00;;;;;;5053285;28;20283;-64
2024/01/16 07:02:03;;;;;;;8.60;5.72;;;15.00;27.90;;;;;;5053438;28;20319;-64
2024/01/16 07:04:30;;;;;;;7.35;5.30;;;15.00;28.00;;;;;;5052101;28;20275;-65
2024/01/16 07:06:59;;;;;;;7.90;5.30;;;14.90;27.90;;;;;;5052973;28;20247;-64
2024/01/16 07:09:27;;;;;;;10.02;6.05;;;15.00;28.00;;;;;;5053599;28;20314;-64
2024/01/16 07:11:54;;;;;;;8.98;5.60;;;14.90;27.90;;;;;;5053160;28;20247;-64
2024/01/16 07:14:21;;;;;;;11.65;5.82;;;14.90;27.90;;;;;;5048129;28;20195;-64
2024/01/16 07:16:49;;;;;;;6.75;5.30;;;14.90;27.90;;;;;;5052826;28;20299;-64
2024/01/16 07:19:16;;;;;;;9.02;5.95;;;14.90;27.90;;;;;;5052661;28;20192;-64
2024/01/16 07:21:44;;;;;;;6.88;4.95;;;14.90;27.90;;;;;;5051176;28;20235;-64
2024/01/16 07:24:12;;;;;;;7.40;5.38;;;15.00;28.00;;;;;;5051050;28;20196;-64
2024/01/16 07:26:40;;;;;;;7.68;5.40;;;15.00;28.00;;;;;;5051970;28;20740;-64
2024/01/16 07:29:06;;;;;;;6.93;5.32;;;15.00;28.00;;;;;;5050991;28;20195;-64
2024/01/16 07:31:33;;;;;;;7.53;5.18;;;15.10;28.00;;;;;;5052789;28;20305;-64
2024/01/16 07:34:02;;;;;;;8.02;5.32;;;15.10;28.00;;;;;;5052237;28;20267;-64
2024/01/16 07:36:29;;;;;;;6.60;5.13;;;15.10;28.00;;;;;;5052271;28;20731;-64
2024/01/16 07:38:57;;;;;;;7.65;5.72;;;15.10;28.00;;;;;;5050851;28;20188;-64
2024/01/16 07:41:24;;;;;;;7.97;5.75;;;15.10;28.50;;;;;;5052143;28;20304;-64
2024/01/16 07:43:51;;;;;;;8.63;5.70;;;15.10;28.10;;;;;;5052166;28;20192;-64
2024/01/16 07:46:18;;;;;;;7.30;5.75;;;15.10;28.00;;;;;;5052344;28;20238;-64
2024/01/16 07:48:45;;;;;;;8.15;5.85;;;15.20;28.10;;;;;;5046493;28;20620;-63
2024/01/16 07:51:13;;;;;;;7.82;6.15;;;15.20;28.10;;;;;;5040611;28;20658;-55
2024/01/16 07:53:40;;;;;;;10.55;5.70;;;15.20;28.10;;;;;;5047091;28;20282;-51
2024/01/16 07:56:09;;;;;;;8.23;5.78;;;15.20;28.10;;;;;;5049603;28;20275;-63
2024/01/16 07:58:36;;;;;;;7.78;5.72;;;15.20;28.10;;;;;;5046791;28;20223;-62
2024/01/16 08:01:03;;;;;;;7.43;5.90;;;15.20;28.10;;;;;;5038302;28;20780;-54
2024/01/16 08:03:30;;;;;;;9.18;6.15;;;15.20;28.10;;;;;;5046549;28;20211;-60
2024/01/16 08:05:58;;;;;;;9.43;5.95;;;15.30;28.20;;;;;;5044620;28;20245;-61
2024/01/16 08:08:28;;;;;;;8.88;5.70;;;15.30;28.20;;;;;;5047012;28;20235;-63
2024/01/16 08:10:55;;;;;;;8.98;6.28;;;15.30;28.20;;;;;;5037445;28;20206;-58
2024/01/16 08:13:22;;;;;;;9.30;6.80;;;15.30;28.30;;;;;;5046772;28;20279;-65
2024/01/16 08:15:49;;;;;;;8.73;6.20;;;15.30;28.30;;;;;;5045675;28;20617;-65
2024/01/16 08:18:17;;;;;;;7.78;6.13;;;15.30;28.50;;;;;;5044740;28;20255;-63
2024/01/16 08:20:44;;;;;;;9.15;6.65;;;15.40;28.80;;;;;;5046005;28;20682;-59
2024/01/16 08:23:12;;;;;;;8.23;6.40;;;15.50;28.80;;;;;;5045514;28;20239;-61
2024/01/16 08:25:40;;;;;;;8.80;6.07;;;15.50;28.80;;;;;;5045450;28;20245;-57
2024/01/16 08:28:07;;;;;;;9.00;6.18;;;15.60;28.80;;;;;;5046650;28;20247;-67
2024/01/16 08:30:34;;;;;;;10.50;6.22;;;15.70;28.90;;;;;;5045842;28;20284;-62
2024/01/16 08:33:01;;;;;;;9.38;6.07;;;15.70;28.80;;;;;;5046726;28;20219;-63
2024/01/16 08:35:28;;;;;;;10.82;6.43;;;15.80;29.00;;;;;;5046719;28;20625;-65
2024/01/16 08:37:55;;;;;;;9.00;6.63;;;15.80;29.00;;;;;;5047329;28;20303;-65
2024/01/16 08:40:22;;;;;;;12.25;6.40;;;15.90;29.10;;;;;;5045606;28;20283;-57
2024/01/16 08:42:54;;;;;;;9.25;6.07;;;15.80;29.00;;;;;;5045884;28;20314;-65
2024/01/16 08:45:22;;;;;;;9.48;6.10;;;15.90;29.00;;;;;;5046232;28;20282;-62
2024/01/16 08:47:49;;;;;;;9.70;6.40;;;15.90;29.10;;;;;;5046046;28;20211;-53
2024/01/16 08:50:16;;;;;;;7.82;6.20;;;15.90;29.10;;;;;;5045164;28;20324;-63
2024/01/16 08:52:43;;;;;;;9.43;6.43;;;16.00;29.10;;;;;;5046357;28;20216;-64
2024/01/16 08:55:10;;;;;;;8.43;6.32;;;16.00;29.70;;;;;;5044316;28;20196;-65
2024/01/16 08:57:38;;;;;;;11.27;6.30;;;16.00;29.20;;;;;;5047338;28;20227;-62
2024/01/16 09:00:08;;;;;;;11.18;6.72;;;16.00;29.40;;;;;;5044683;28;20199;-64
2024/01/16 09:02:35;;;;;;;11.77;6.40;;;16.00;29.40;;;;;;5046057;28;20247;-63
2024/01/16 09:05:02;;;;;;;10.13;6.43;;;16.10;29.90;;;;;;5046533;28;20618;-65
2024/01/16 09:07:29;;;;;;;10.25;6.80;;;16.10;29.40;;;;;;5046052;28;20346;-63
2024/01/16 09:09:56;;;;;;;11.23;6.93;;;16.10;29.50;;;;;;5044912;28;20291;-63
2024/01/16 09:12:23;;;;;;;10.88;6.53;;;16.10;29.50;;;;;;5044652;28;20307;-64
2024/01/16 09:14:50;;;;;;;12.13;6.68;;;16.20;29.50;;;;;;5046559;28;20191;-55
2024/01/16 09:17:20;;;;;;;10.60;7.25;;;16.20;29.60;;;;;;4997830;28;20219;-63
2024/01/16 09:19:47;;;;;;;10.45;6.82;;;16.20;29.50;;;;;;5046035;28;20687;-66
2024/01/16 09:22:16;;;;;;;8.98;6.28;;;16.20;29.50;;;;;;5045733;28;20306;-55
2024/01/16 09:24:45;;;;;;;10.30;6.88;;;16.30;29.60;;;;;;5044015;28;20843;-64
2024/01/16 09:27:14;;;;;;;11.02;7.03;;;16.30;29.60;;;;;;4963766;28;20230;-65
2024/01/16 09:29:42;;;;;;;19.48;7.47;;;16.30;29.90;;;;;;5047576;28;20282;-65
2024/01/16 09:32:09;;;;;;;12.32;7.03;;;16.30;29.80;;;;;;5049561;28;20195;-64
2024/01/16 09:34:37;;;;;;;11.30;7.45;;;16.40;29.80;;;;;;5050257;28;20187;-65
2024/01/16 09:37:04;;;;;;;12.35;7.85;;;16.40;29.90;;;;;;5050417;28;20202;-64
2024/01/16 09:39:34;;;;;;;11.68;7.80;;;16.40;30.00;;;;;;5045955;28;20427;-63
2024/01/16 09:42:01;;;;;;;12.63;7.70;;;16.40;30.10;;;;;;5045461;28;20196;-64
2024/01/16 09:44:29;;;;;;;14.25;7.72;;;16.40;30.10;;;;;;5047105;28;20237;-62
2024/01/16 09:46:58;;;;;;;15.50;7.25;;;16.50;30.20;;;;;;5045837;28;20283;-63
2024/01/16 09:49:25;;;;;;;12.73;7.65;;;16.50;30.50;;;;;;5046150;28;20194;-65
2024/01/16 09:51:54;;;;;;;10.77;7.07;;;16.50;30.20;;;;;;5049148;28;20195;-65
2024/01/16 09:54:21;;;;;;;16.88;7.85;;;16.50;30.20;;;;;;5048892;28;20947;-64
2024/01/16 09:56:52;;;;;;;11.57;7.45;;;16.50;30.60;;;;;;5048705;28;20199;-62
2024/01/16 09:59:19;;;;;;;12.23;7.15;;;16.50;30.50;;;;;;5047697;28;20314;-62
2024/01/16 10:01:47;;;;;;;12.88;6.70;;;16.50;30.50;;;;;;5048529;28;20203;-65
2024/01/16 10:04:14;;;;;;;14.02;7.20;;;16.60;30.40;;;;;;5048583;28;20223;-64
2024/01/16 10:06:46;;;;;;;10.82;6.47;;;16.60;30.40;;;;;;5046747;28;20923;-64
2024/01/16 10:09:14;;;;;;;8.40;6.55;;;16.60;30.30;;;;;;5045793;28;20297;-59
2024/01/16 10:11:42;;;;;;;15.63;6.50;;;16.50;30.50;;;;;;5046589;28;20576;-64
2024/01/16 10:14:18;;;;;;;9.48;6.72;;;16.50;30.30;;;;;;5047586;28;20672;-62
2024/01/16 10:17:07;;;;;;;11.82;6.60;;;16.50;30.20;;;;;;5045769;28;20553;-63
2024/01/16 10:19:34;;;;;;;10.93;6.45;;;16.50;30.20;;;;;;5047346;28;20200;-66
2024/01/16 10:22:06;;;;;;;10.82;6.85;;;16.50;30.10;;;;;;5047849;28;20195;-63
2024/01/16 10:24:35;;;;;;;12.07;7.00;;;16.50;30.20;;;;;;5044125;28;20247;-63
2024/01/16 10:27:03;;;;;;;9.57;6.63;;;16.50;30.20;;;;;;5047383;28;20635;-63
2024/01/16 10:29:31;;;;;;;18.15;7.35;;;16.60;30.30;;;;;;5046329;28;20255;-57
2024/01/16 10:31:58;;;;;;;10.85;6.22;;;16.60;30.30;;;;;;5045153;28;20191;-58
2024/01/16 10:34:25;;;;;;;12.40;6.82;;;16.60;30.20;;;;;;5046053;28;20321;-63
2024/01/16 10:37:00;;;;;;;16.88;6.57;;;16.60;30.20;;;;;;5046933;28;20191;-55
2024/01/16 10:39:27;;;;;;;11.85;6.40;;;16.60;30.10;;;;;;5043488;28;20215;-59
2024/01/16 10:41:59;;;;;;;11.32;6.05;;;16.60;30.20;;;;;;5045597;28;20218;-62
2024/01/16 10:44:27;;;;;;;10.52;6.38;;;16.60;30.20;;;;;;5039850;28;20234;-64
2024/01/16 10:47:11;;;;;;;8.82;6.38;;;16.60;30.10;;;;;;5044256;28;20202;-62
2024/01/16 10:49:39;;;;;;;13.35;6.38;;;16.80;30.10;;;;;;5045744;28;20224;-54
2024/01/16 10:52:12;;;;;;;10.05;6.40;;;16.80;30.00;;;;;;5046567;28;20208;-65
2024/01/16 10:54:44;;;;;;;9.43;5.95;;;17.00;30.00;;;;;;5046227;28;20670;-59
2024/01/16 10:57:13;;;;;;;10.15;5.75;;;17.10;29.90;;;;;;5041730;28;20579;-60
2024/01/16 10:59:49;;;;;;;11.27;6.18;;;17.20;29.70;;;;;;5045543;28;20819;-60
2024/01/16 11:02:17;;;;;;;8.07;5.70;;;17.40;29.50;;;;;;5046583;28;20285;-60
2024/01/16 11:04:44;;;;;;;13.80;6.78;;;17.50;29.60;;;;;;5044894;28;20227;-63
2024/01/16 11:07:14;;;;;;;8.95;5.45;;;17.60;29.60;;;;;;5045220;28;20231;-60
2024/01/16 11:09:42;;;;;;;12.02;5.45;;;17.70;29.30;;;;;;5046179;28;20226;-64
2024/01/16 11:12:11;;;;;;;8.20;5.00;;;17.80;29.30;;;;;;5044786;28;20203;-61
2024/01/16 11:14:41;;;;;;;7.55;5.53;;;17.90;29.20;;;;;;5046420;28;20234;-63
2024/01/16 11:17:13;;;;;;;7.45;5.15;;;18.00;29.00;;;;;;5046068;28;20261;-59
2024/01/16 11:19:40;;;;;;;8.20;5.68;;;18.10;29.00;;;;;;5046112;28;20592;-60
2024/01/16 11:22:07;;;;;;;7.35;5.13;;;18.10;28.90;;;;;;5048661;28;20188;-62
2024/01/16 11:24:35;;;;;;;7.63;4.90;;;18.20;28.90;;;;;;5048403;28;20237;-64
2024/01/16 11:27:02;;;;;;;9.63;5.20;;;18.30;28.80;;;;;;5048463;28;20245;-63
2024/01/16 11:29:37;;;;;;;7.90;4.90;;;18.30;28.70;;;;;;5047678;28;20243;-60
2024/01/16 11:32:06;;;;;;;8.75;4.82;;;18.40;28.60;;;;;;5048872;28;20229;-64
2024/01/16 11:34:55;;;;;;;10.27;5.22;;;18.50;28.40;;;;;;5048443;28;20242;-63
2024/01/16 11:37:31;;;;;;;9.90;5.50;;;18.60;28.40;;;;;;5047183;28;20586;-63
2024/01/16 11:40:27;;;;;;;9.82;4.97;;;18.60;28.30;;;;;;5040327;28;20219;-65
2024/01/16 11:42:55;;;;;;;9.57;5.13;;;18.70;28.20;;;;;;5046052;28;20215;-60
2024/01/16 11:45:50;;;;;;;9.60;5.18;;;18.80;28.20;;;;;;5047551;28;20300;-59
2024/01/16 11:48:19;;;;;;;8.15;4.75;;;18.80;28.00;;;;;;4998033;28;20206;-65
2024/01/16 11:50:46;;;;;;;10.32;4.80;;;18.90;28.10;;;;;;5047317;28;20214;-62
2024/01/16 11:53:33;;;;;;;5.82;4.55;;;18.90;28.00;;;;;;5047258;28;20203;-64
2024/01/16 11:56:26;;;;;;;9.23;4.82;;;19.00;27.90;;;;;;5045773;28;20195;-64
2024/01/16 11:59:06;;;;;;;6.97;4.75;;;19.00;27.80;;;;;;5043592;28;20251;-65
2024/01/16 12:01:33;;;;;;;7.25;4.60;;;19.10;27.80;;;;;;5047433;28;20191;-58
2024/01/16 12:04:05;;;;;;;8.32;4.50;;;19.10;27.80;;;;;;5047672;28;20314;-58
2024/01/16 12:06:32;;;;;;;6.25;4.53;;;19.10;27.70;;;;;;5045390;28;20203;-64
2024/01/16 12:09:13;;;;;;;8.73;4.70;;;19.10;27.60;;;;;;5047200;28;20302;-63
2024/01/16 12:11:43;;;;;;;6.90;4.63;;;19.20;27.50;;;;;;5046043;28;20294;-60
2024/01/16 12:14:10;;;;;;;5.75;4.47;;;19.20;27.50;;;;;;5046841;28;20219;-63
2024/01/16 12:16:38;;;;;;;5.53;3.75;;;19.20;27.50;;;;;;5047465;28;20743;-63
2024/01/16 12:19:07;;;;;;;5.57;4.15;;;19.20;27.40;;;;;;5047403;28;20226;-61
2024/01/16 12:21:36;;;;;;;7.43;4.45;;;19.30;27.40;;;;;;5045610;28;20284;-61
2024/01/16 12:24:04;;;;;;;6.57;4.30;;;19.30;27.30;;;;;;5048041;28;20222;-64
2024/01/16 12:26:32;;;;;;;5.85;3.95;;;19.40;27.30;;;;;;5047676;28;20610;-62
2024/01/16 12:29:00;;;;;;;5.88;3.85;;;19.40;27.30;;;;;;5047092;28;20662;-63
2024/01/16 12:31:27;;;;;;;5.35;3.95;;;19.40;27.20;;;;;;5047333;28;20660;-61
2024/01/16 12:33:54;;;;;;;7.30;4.32;;;19.40;27.10;;;;;;5049694;28;20274;-57
2024/01/16 12:36:23;;;;;;;5.53;4.10;;;19.50;27.00;;;;;;5047133;28;20604;-61
2024/01/16 12:38:56;;;;;;;6.32;3.90;;;19.50;27.00;;;;;;5047577;28;20196;-59
2024/01/16 12:41:24;;;;;;;5.80;4.00;;;19.50;27.00;;;;;;5047183;28;20265;-64
2024/01/16 12:43:52;;;;;;;5.97;4.00;;;19.50;27.00;;;;;;5044480;28;20308;-62
2024/01/16 12:46:20;;;;;;;7.28;4.00;;;19.50;27.00;;;;;;5046166;28;20251;-57